Smithton, Illinois
Current Conditions -  °F | °C
As of 12:58 AM on Saturday 25 Oct 2014 (Local Time) from KBLV Reporting Station
Clear Clear  
Wind Chill: 56°   Ceiling: Unl
Heat Index: 56°   Visibility: 10mi
Dew Point: 53°   Wind: 2mph
Humidity: 89%   Direction: 190°S
Pressure: 29.99"   Gusts: NA
Location:  38.41°N, 89.99°W
Report Text: KBLV 250558Z AUTO 19002KT 10SM CLR 13/11 A2999 RMK AO2 SLP158 T01320114 10164 20130 402250085 58002 $
Loading
Personal Weather Stations






























Interactive Weather Map
Tropical Storm Tracking
New forecast layout! Learn more

10-Day Weather Forecast

Advertisements
Track Severe Weather on mobile